Kenosha Regional Airport
KENW : rendu visible

Aérodrome :











RETROUVEZ-NOUS SUR...

 
LOGIN :

S'inscrire | Disclaimer

   EN    FR    IT 

 









Légende :    VFR   VFR Marginal   IFR   IFR Intensif   IFR Très Intensif
Visi : 
Plafond : 
>= 8 km
>= 3000ft
5 à 8 km
1000 à 3000 ft
1500m à 5 km
500 à 1000 ft
800 à 1500m
200 à 500 ft
< 800m
< 200 ft
Symboles :   Orages  Brouillard  Fortes neiges  Fortes précipitations  Vent > 20 kt






- Altitude de l'aérodrome : 742 ft


KENW - Kenosha Regional

DERNIER METAR :
  • 191253Z 00000KT 9SM OVC013 02/M01 A2976 RMK AO2 SLP085 T00221006

METARs EXPIRÉS :
  • 191153Z AUTO 00000KT 9SM OVC013 02/00 A2975 RMK AO2 SLP080 T00220000 10028 20022 50006
  • 191053Z AUTO 27003KT 10SM OVC013 02/M01 A2975 RMK AO2 SLP081 T00221006
  • 190953Z AUTO 25004KT 10SM OVC013 02/M01 A2973 RMK AO2 SLP074 T00221006

TAF KENW
Valide du 19 à 12h jusqu'au 20 à 12h UTC


191120Z 1912/2012 26004KT P6SM OVC011
FM191600 24003KT P6SM OVC013
FM200600 26004KT P6SM OVC009
FM200800 27004KT 4SM BR OVC006



MET'MAP, la Météo Aéronautique d'un coup d'oeil ! - Copyright ORBIFLY Décembre 2007 - Disclaimer

ORBIFLY MET'MAP TEAM :

Programmation & Développement : Alexandra Zaïnal
Conception & Développement : Baudouin d'Aumeries
Co-Programmation & Développement : Marc-Olivier Méhu
Soutien technique & logistique : Manuel Goepfert

Contact : metmap@orbifly.com




SOURCES & CREDITS :

   NOAA       Earth
Advisory